Time;durP1;ratioP1;P1;durP2;ratioP2;P2;SDS_P1;SDS_P2;PMS_P1;PMS_P2;Temp;Humidity;BMP_temperature;BMP_pressure;BME280_temperature;BME280_humidity;BME280_pressure;Samples;Min_cycle;Max_cycle;Signal;HPM_P1;HPM_P2
2021/01/09 00:02:02;;;;;;;24.10;14.23;;;;;;;-2.01;95.10;102257.09;5069555;28;20282;-77
2021/01/09 00:04:27;;;;;;;24.45;14.27;;;;;;;-2.04;95.23;102270.28;5068187;28;20020;-76
2021/01/09 00:06:52;;;;;;;25.40;14.30;;;;;;;-2.10;95.11;102267.19;5068140;28;20025;-77
2021/01/09 00:09:18;;;;;;;28.33;16.53;;;;;;;-2.16;94.97;102261.56;5069515;28;20282;-76
2021/01/09 00:11:43;;;;;;;27.42;15.23;;;;;;;-2.15;95.15;102258.28;5068416;28;20270;-77
2021/01/09 00:14:08;;;;;;;26.02;14.68;;;;;;;-2.13;95.37;102259.34;5069422;28;20045;-76
2021/01/09 00:16:33;;;;;;;26.85;15.32;;;;;;;-2.16;95.07;102264.06;5068341;28;20028;-76
2021/01/09 00:18:59;;;;;;;26.85;13.77;;;;;;;-2.20;95.36;102270.44;5068162;28;20028;-76
2021/01/09 00:21:33;;;;;;;25.70;14.02;;;;;;;-2.24;95.03;102259.94;5067942;28;20477;-76
2021/01/09 00:23:58;;;;;;;28.23;15.17;;;;;;;-2.23;95.36;102264.22;5065855;28;20025;-76
2021/01/09 00:26:28;;;;;;;28.17;15.93;;;;;;;-2.20;95.62;102274.59;5068951;28;20038;-77
2021/01/09 00:28:53;;;;;;;28.13;15.10;;;;;;;-2.18;95.82;102270.59;5067822;28;20025;-76
2021/01/09 00:31:18;;;;;;;26.13;14.45;;;;;;;-2.13;96.10;102273.53;5067757;28;20402;-76
2021/01/09 00:33:44;;;;;;;29.67;15.90;;;;;;;-2.11;96.17;102270.44;5067802;28;20053;-76
2021/01/09 00:36:09;;;;;;;23.80;13.43;;;;;;;-2.10;96.22;102274.72;5069087;28;20039;-76
2021/01/09 00:38:34;;;;;;;21.73;13.25;;;;;;;-2.07;96.24;102270.00;5069112;28;20021;-76
2021/01/09 00:40:59;;;;;;;24.77;13.80;;;;;;;-2.01;96.44;102275.59;5068944;28;20028;-76
2021/01/09 00:43:25;;;;;;;27.85;14.10;;;;;;;-1.96;96.49;102269.38;5069334;28;20029;-75
2021/01/09 00:45:50;;;;;;;21.80;12.73;;;;;;;-1.92;97.00;102275.63;5067429;28;20016;-76
2021/01/09 00:48:15;;;;;;;23.02;12.77;;;;;;;-1.91;96.70;102272.38;5067475;28;20031;-76
2021/01/09 00:50:40;;;;;;;21.80;12.15;;;;;;;-1.79;97.24;102276.06;5068999;28;20047;-76
2021/01/09 00:53:06;;;;;;;30.80;13.98;;;;;;;-1.74;97.26;102276.47;5068708;28;20031;-76
2021/01/09 00:55:31;;;;;;;24.92;13.00;;;;;;;-1.62;97.54;102276.03;5068767;28;20035;-76
2021/01/09 00:57:56;;;;;;;22.20;12.70;;;;;;;-1.66;97.30;102275.56;5068550;28;20393;-76
2021/01/09 01:00:22;;;;;;;21.30;11.32;;;;;;;-1.71;97.51;102279.28;5068747;28;20016;-76
2021/01/09 01:02:47;;;;;;;24.55;12.57;;;;;;;-1.75;97.56;102278.13;5068564;28;20451;-76
2021/01/09 01:05:12;;;;;;;24.00;12.27;;;;;;;-1.78;97.23;102284.50;5068761;28;20119;-76
2021/01/09 01:07:38;;;;;;;20.60;12.07;;;;;;;-1.79;97.35;102280.19;5068715;28;20351;-76
2021/01/09 01:10:04;;;;;;;22.20;10.65;;;;;;;-1.85;97.37;102290.59;5068733;28;20024;-77
2021/01/09 01:12:32;;;;;;;21.20;11.50;;;;;;;-1.95;97.47;102286.31;5066742;28;20063;-76
2021/01/09 01:14:57;;;;;;;22.13;10.27;;;;;;;-2.03;97.48;102298.88;5066646;28;20029;-76
2021/01/09 01:17:22;;;;;;;20.30;10.38;;;;;;;-2.22;97.24;102297.09;5066936;28;20106;-76
2021/01/09 01:19:48;;;;;;;20.45;10.52;;;;;;;-2.26;97.28;102294.13;5068350;28;20025;-76
2021/01/09 01:22:13;;;;;;;20.95;10.80;;;;;;;-2.27;97.06;102298.28;5067289;28;20055;-76
2021/01/09 01:24:38;;;;;;;18.50;9.60;;;;;;;-2.27;96.89;102294.88;5070784;28;20031;-76
2021/01/09 01:27:04;;;;;;;21.40;10.02;;;;;;;-2.25;96.94;102305.97;5071974;28;20736;-76
2021/01/09 01:29:29;;;;;;;18.55;10.25;;;;;;;-2.29;96.53;102301.34;5071168;28;20028;-76
2021/01/09 01:31:58;;;;;;;23.17;11.68;;;;;;;-2.35;96.99;102310.81;5072022;28;20033;-76
2021/01/09 01:34:23;;;;;;;20.47;10.60;;;;;;;-2.34;96.54;102302.53;5070183;28;20016;-76
2021/01/09 01:36:48;;;;;;;19.63;9.88;;;;;;;-2.38;96.72;102310.53;5072095;28;20505;-76
2021/01/09 01:39:14;;;;;;;26.80;12.13;;;;;;;-2.38;96.72;102306.38;5070997;28;20024;-77
2021/01/09 01:41:39;;;;;;;19.33;9.77;;;;;;;-2.43;96.52;102309.19;5072578;28;20028;-77
2021/01/09 01:44:05;;;;;;;17.27;10.05;;;;;;;-2.46;96.26;102313.91;5070907;28;20095;-75
2021/01/09 01:46:30;;;;;;;17.45;9.52;;;;;;;-2.46;96.40;102318.94;5071796;28;20024;-75
2021/01/09 01:48:55;;;;;;;19.88;10.50;;;;;;;-2.48;96.25;102322.94;5071959;28;20021;-76
2021/01/09 01:51:20;;;;;;;21.40;10.63;;;;;;;-2.52;96.21;102326.78;5071890;28;20632;-76
2021/01/09 01:53:46;;;;;;;20.70;10.15;;;;;;;-2.52;96.06;102329.31;5070600;28;20039;-77
2021/01/09 01:56:12;;;;;;;21.98;10.18;;;;;;;-2.51;96.15;102329.44;5070043;28;20036;-76
2021/01/09 01:58:37;;;;;;;;;;;;;;;-2.54;96.33;102326.63;5072298;28;20035;-75
2021/01/09 02:01:03;;;;;;;20.80;12.33;;;;;;;-2.55;96.05;102323.97;5070376;28;20297;-76
2021/01/09 02:03:28;;;;;;;23.73;12.48;;;;;;;-2.56;96.23;102332.25;5070559;28;20028;-76
2021/01/09 02:06:16;;;;;;;34.58;15.65;;;;;;;-2.56;95.92;102333.13;5071868;28;20492;-76
2021/01/09 02:09:02;;;;;;;34.70;15.93;;;;;;;-2.58;95.83;102339.66;5070344;28;20054;-75
2021/01/09 02:11:55;;;;;;;32.80;16.00;;;;;;;-2.60;95.78;102336.09;5070643;28;20021;-76
2021/01/09 02:14:29;;;;;;;34.90;16.00;;;;;;;-2.58;95.96;102339.66;5052349;28;20098;-75
2021/01/09 02:16:56;;;;;;;23.43;12.67;;;;;;;-2.61;96.15;102345.97;5071330;28;20029;-75
2021/01/09 02:19:25;;;;;;;29.57;13.47;;;;;;;-2.69;95.65;102349.34;5070272;28;20024;-76
2021/01/09 02:21:53;;;;;;;21.43;11.13;;;;;;;-2.71;96.12;102346.69;5071190;28;20031;-76
2021/01/09 02:24:18;;;;;;;24.23;11.97;;;;;;;-2.77;95.78;102346.06;5070055;28;20070;-76
2021/01/09 02:26:45;;;;;;;20.63;11.77;;;;;;;-2.75;95.49;102348.75;5069775;28;20433;-77
2021/01/09 02:29:12;;;;;;;22.20;10.93;;;;;;;-2.77;95.26;102350.22;5069816;28;20025;-76
2021/01/09 02:31:44;;;;;;;25.23;12.80;;;;;;;-2.77;95.89;102347.69;5071011;28;20020;-76
2021/01/09 02:34:10;;;;;;;24.97;12.50;;;;;;;-2.76;95.34;102352.88;5068835;28;20027;-75
2021/01/09 02:36:39;;;;;;;22.90;11.53;;;;;;;-2.83;95.05;102355.53;5070809;28;20044;-76
2021/01/09 02:39:05;;;;;;;22.87;12.83;;;;;;;-2.86;95.20;102355.22;5069821;28;20124;-76
2021/01/09 02:41:34;;;;;;;25.20;12.45;;;;;;;-2.83;95.50;102355.53;5070988;28;20099;-76
2021/01/09 02:44:10;;;;;;;21.80;11.20;;;;;;;-2.80;95.66;102358.34;5069864;28;20111;-76
2021/01/09 02:46:38;;;;;;;19.17;10.03;;;;;;;-2.78;95.76;102361.91;5068653;28;20031;-76
2021/01/09 02:49:05;;;;;;;19.60;11.33;;;;;;;-2.75;95.46;102354.66;5070887;28;20028;-76
2021/01/09 02:51:31;;;;;;;21.93;10.83;;;;;;;-2.67;96.01;102348.75;5070610;28;20036;-76
2021/01/09 02:53:56;;;;;;;21.08;10.52;;;;;;;-2.63;95.93;102353.38;5070893;28;20025;-76
2021/01/09 02:56:21;;;;;;;18.60;9.27;;;;;;;-2.62;95.91;102357.66;5068791;28;20119;-76
2021/01/09 02:58:47;;;;;;;18.42;9.63;;;;;;;-2.71;95.61;102351.72;5070746;28;20028;-76
2021/01/09 03:01:12;;;;;;;19.07;10.47;;;;;;;-2.75;96.01;102354.66;5069226;28;20481;-76
2021/01/09 03:03:37;;;;;;;18.45;9.95;;;;;;;-2.75;95.93;102357.19;5070555;28;20305;-76
2021/01/09 03:06:03;;;;;;;19.60;9.32;;;;;;;-2.84;95.56;102354.63;5070823;28;20012;-76
2021/01/09 03:08:28;;;;;;;18.58;9.60;;;;;;;-2.92;95.19;102350.47;5070311;28;20405;-76
2021/01/09 03:10:53;;;;;;;17.65;9.32;;;;;;;-2.97;95.24;102354.09;5068866;28;20130;-76
2021/01/09 03:13:19;;;;;;;17.48;9.65;;;;;;;-3.02;95.21;102346.84;5070999;28;20029;-75
2021/01/09 03:15:44;;;;;;;18.60;9.63;;;;;;;-2.93;94.82;102352.78;5069923;28;20483;-76
2021/01/09 03:18:09;;;;;;;16.50;9.27;;;;;;;-3.01;94.90;102354.53;5068926;28;20043;-76
2021/01/09 03:20:34;;;;;;;17.73;9.18;;;;;;;-3.08;94.32;102361.28;5069108;28;20559;-75
2021/01/09 03:23:00;;;;;;;23.87;9.80;;;;;;;-3.05;94.76;102356.59;5070323;28;20036;-76
2021/01/09 03:25:25;;;;;;;20.57;10.23;;;;;;;-3.11;95.01;102358.47;5070122;28;20339;-76
2021/01/09 03:27:50;;;;;;;20.67;10.87;;;;;;;-3.07;95.32;102361.47;5070300;28;20298;-76
2021/01/09 03:30:16;;;;;;;17.93;9.83;;;;;;;-3.02;95.54;102366.94;5068766;28;20366;-77
2021/01/09 03:32:41;;;;;;;22.67;9.55;;;;;;;-3.03;95.75;102361.03;5069765;28;20760;-77
2021/01/09 03:35:07;;;;;;;18.15;9.77;;;;;;;-3.06;95.44;102365.75;5068817;28;20394;-76
2021/01/09 03:37:32;;;;;;;15.93;8.60;;;;;;;-3.09;95.47;102362.03;5068415;28;20071;-75
2021/01/09 03:39:58;;;;;;;19.48;10.52;;;;;;;-3.14;95.49;102362.47;5069061;28;20021;-76
2021/01/09 03:42:23;;;;;;;17.20;9.80;;;;;;;-3.09;95.66;102367.06;5069260;28;20493;-76
2021/01/09 03:44:48;;;;;;;23.87;8.63;;;;;;;-3.09;95.84;102365.44;5068400;28;20283;-76
2021/01/09 03:47:13;;;;;;;23.33;11.05;;;;;;;-3.13;95.85;102374.28;5069154;28;20274;-76
2021/01/09 03:49:38;;;;;;;20.85;9.40;;;;;;;-3.11;95.94;102371.94;5068405;28;20051;-76
2021/01/09 03:52:04;;;;;;;17.25;9.05;;;;;;;-3.11;96.16;102369.41;5067923;28;20107;-74
2021/01/09 03:54:29;;;;;;;21.48;10.20;;;;;;;-3.10;95.93;102371.19;5068257;28;20416;-76
2021/01/09 03:56:54;;;;;;;16.83;9.30;;;;;;;-2.99;96.81;102365.63;5067857;28;20055;-76
2021/01/09 03:59:19;;;;;;;18.83;9.45;;;;;;;-2.96;96.57;102370.06;5068101;28;20500;-77
2021/01/09 04:01:45;;;;;;;15.20;7.82;;;;;;;-2.96;96.43;102367.56;5069411;28;20063;-76
2021/01/09 04:04:10;;;;;;;15.93;9.25;;;;;;;-3.01;96.55;102372.13;5069458;28;20036;-76
2021/01/09 04:06:36;;;;;;;15.45;8.30;;;;;;;-3.02;96.69;102366.94;5067748;28;20074;-75
2021/01/09 04:09:01;;;;;;;15.55;8.25;;;;;;;-3.04;96.29;102365.91;5069055;28;20032;-75
2021/01/09 04:11:27;;;;;;;14.07;7.68;;;;;;;-3.07;96.29;102369.00;5067980;28;20020;-76
2021/01/09 04:13:55;;;;;;;15.70;7.72;;;;;;;-3.10;96.26;102363.66;5068491;28;20039;-76
2021/01/09 04:16:20;;;;;;;16.83;8.00;;;;;;;-3.11;96.48;102366.00;5068675;28;20024;-75
2021/01/09 04:18:45;;;;;;;16.30;8.45;;;;;;;-3.11;96.36;102361.00;5069290;28;20097;-76
2021/01/09 04:21:10;;;;;;;15.98;7.32;;;;;;;-3.08;96.01;102367.22;5069138;28;20039;-76
2021/01/09 04:23:36;;;;;;;15.00;7.70;;;;;;;-3.07;96.19;102369.00;5068016;28;20047;-77
2021/01/09 04:26:01;;;;;;;14.50;7.10;;;;;;;-3.06;96.33;102369.88;5069064;28;20093;-76
2021/01/09 04:28:26;;;;;;;15.38;7.35;;;;;;;-3.11;96.30;102371.03;5067379;28;20024;-76
2021/01/09 04:30:51;;;;;;;18.27;8.80;;;;;;;-3.07;96.58;102374.03;5067568;28;20052;-75
2021/01/09 04:33:17;;;;;;;16.70;7.77;;;;;;;-3.02;96.57;102371.97;5067593;28;20115;-76
2021/01/09 04:35:42;;;;;;;16.93;7.63;;;;;;;-3.02;96.29;102374.47;5068972;28;20286;-76
2021/01/09 04:38:07;;;;;;;13.97;7.47;;;;;;;-2.98;96.72;102376.56;5068934;28;20263;-76
2021/01/09 04:40:35;;;;;;;15.43;8.20;;;;;;;-3.01;96.72;102376.25;5067698;28;20267;-76
2021/01/09 04:43:00;;;;;;;14.97;7.70;;;;;;;-3.01;96.75;102371.25;5069365;28;20039;-75
2021/01/09 04:45:26;;;;;;;15.57;7.82;;;;;;;-3.00;96.67;102383.06;5068926;28;20420;-76
2021/01/09 04:47:51;;;;;;;16.33;7.10;;;;;;;-3.01;96.96;102386.31;5067363;28;20020;-76
2021/01/09 04:50:19;;;;;;;14.43;7.55;;;;;;;-3.01;96.54;102386.31;5067846;28;20031;-76
2021/01/09 04:52:45;;;;;;;15.27;8.50;;;;;;;-3.00;97.24;102394.03;5068600;28;20032;-76
2021/01/09 04:55:11;;;;;;;;;;;;;;;-3.01;97.07;102397.25;5069363;28;20036;-76
2021/01/09 04:57:36;;;;;;;12.03;6.50;;;;;;;-2.97;96.71;102398.47;5067409;28;20289;-78
2021/01/09 05:00:06;;;;;;;14.30;7.93;;;;;;;-3.06;96.63;102395.03;5073197;28;20028;-75
2021/01/09 05:02:35;;;;;;;12.77;6.13;;;;;;;-3.07;96.44;102393.25;5072775;28;20635;-76
2021/01/09 05:05:00;;;;;;;11.87;7.20;;;;;;;-3.08;96.57;102399.00;5072985;28;20056;-76
2021/01/09 05:07:25;;;;;;;16.80;7.35;;;;;;;-3.15;96.56;102398.38;5072546;28;20105;-76
2021/01/09 05:09:59;;;;;;;15.40;7.70;;;;;;;-3.18;96.54;102400.56;5072678;28;20028;-75
2021/01/09 05:12:30;;;;;;;15.43;7.90;;;;;;;-3.17;96.29;102392.31;5069754;28;20029;-76
2021/01/09 05:14:55;;;;;;;11.83;6.47;;;;;;;-3.16;96.27;102399.13;5071626;28;20406;-78
2021/01/09 05:17:23;;;;;;;19.23;7.68;;;;;;;-3.16;96.37;102403.25;5069532;28;20024;-75
2021/01/09 05:19:49;;;;;;;15.30;7.03;;;;;;;-3.17;96.29;102402.34;5072569;28;20143;-77
2021/01/09 05:22:15;;;;;;;14.20;7.28;;;;;;;-3.20;96.55;102402.03;5071321;28;20486;-76
2021/01/09 05:24:46;;;;;;;17.38;7.88;;;;;;;-3.22;96.22;102408.53;5070927;28;20501;-77
2021/01/09 05:27:11;;;;;;;14.57;7.50;;;;;;;-3.23;96.53;102415.91;5071092;28;20020;-76
2021/01/09 05:29:37;;;;;;;17.88;7.22;;;;;;;-3.25;96.43;102412.34;5071097;28;20034;-76
2021/01/09 05:32:07;;;;;;;18.70;7.75;;;;;;;-3.25;96.37;102413.25;5070574;28;20020;-75
2021/01/09 05:34:49;;;;;;;14.40;7.40;;;;;;;-3.23;96.39;102420.94;5079814;22;20038;-76
2021/01/09 05:37:17;;;;;;;12.53;7.20;;;;;;;-3.22;96.70;102422.72;5010291;28;20029;-77
2021/01/09 05:39:53;;;;;;;19.80;8.47;;;;;;;-3.23;96.50;102416.81;5014813;28;20025;-76
2021/01/09 05:42:20;;;;;;;;;;;;;;;-3.25;96.34;102415.75;5013266;28;20018;-75
2021/01/09 05:44:46;;;;;;;18.27;7.22;;;;;;;-3.24;96.35;102416.66;5013114;28;19924;-77
2021/01/09 05:47:12;;;;;;;15.35;7.32;;;;;;;-3.22;96.95;102428.63;5013684;28;20025;-76
2021/01/09 05:49:41;;;;;;;12.27;6.68;;;;;;;-3.22;96.89;102428.63;5013546;28;20542;-75
2021/01/09 05:52:07;;;;;;;15.93;7.17;;;;;;;-3.20;96.46;102424.66;5011832;28;20030;-77
2021/01/09 05:54:36;;;;;;;12.32;6.25;;;;;;;-3.19;96.93;102426.44;5017177;28;20513;-77
2021/01/09 05:57:04;;;;;;;11.90;6.43;;;;;;;-3.17;96.90;102426.59;5014316;28;20065;-77
2021/01/09 05:59:31;;;;;;;12.80;7.00;;;;;;;-3.19;97.08;102428.94;5018685;28;20022;-76
2021/01/09 06:01:58;;;;;;;17.27;7.20;;;;;;;-3.16;97.18;102425.88;5032634;28;20025;-74
2021/01/09 06:04:29;;;;;;;17.83;7.10;;;;;;;-3.13;97.15;102437.13;5015797;28;20017;-77
2021/01/09 06:07:19;;;;;;;16.17;6.97;;;;;;;-3.13;97.18;102429.59;5014585;28;20026;-75
2021/01/09 06:10:02;;;;;;;17.00;7.03;;;;;;;-3.10;97.23;102439.06;5014802;28;20502;-77
2021/01/09 06:12:31;;;;;;;13.23;6.30;;;;;;;-3.09;97.38;102434.94;5015151;28;20022;-77
2021/01/09 06:15:02;;;;;;;13.23;6.53;;;;;;;-3.12;97.14;102440.53;5032410;28;20021;-77
2021/01/09 06:17:28;;;;;;;12.07;6.00;;;;;;;-3.17;97.25;102449.22;5031559;28;20121;-75
2021/01/09 06:19:53;;;;;;;;;;;;;;;-3.21;97.08;102439.59;5031843;28;20096;-76
2021/01/09 06:22:19;;;;;;;11.67;6.23;;;;;;;-3.24;97.31;102444.28;5031112;28;20001;-77
2021/01/09 06:24:45;;;;;;;12.40;6.65;;;;;;;-3.26;97.27;102440.69;5030621;28;20380;-76
2021/01/09 06:27:24;;;;;;;19.10;7.63;;;;;;;-3.27;96.98;102446.47;5014657;28;20022;-77
2021/01/09 06:29:49;;;;;;;12.97;6.70;;;;;;;-3.30;97.02;102448.66;5015712;28;20047;-77
2021/01/09 06:32:19;;;;;;;12.65;6.45;;;;;;;-3.32;97.27;102448.50;5009675;28;20022;-76
2021/01/09 06:34:49;;;;;;;13.70;6.63;;;;;;;-3.33;97.42;102449.22;5009929;28;20129;-77
2021/01/09 06:37:21;;;;;;;15.93;6.53;;;;;;;-3.35;96.64;102449.81;5025769;28;20025;-76
2021/01/09 06:39:46;;;;;;;13.33;6.47;;;;;;;-3.34;96.95;102436.50;5031489;28;20029;-77
2021/01/09 06:42:12;;;;;;;13.43;6.43;;;;;;;-3.33;97.03;102446.72;5010369;28;20018;-76
2021/01/09 06:44:39;;;;;;;12.65;6.82;;;;;;;-3.31;96.66;102457.81;5012573;28;20037;-77
2021/01/09 06:47:04;;;;;;;17.87;7.17;;;;;;;-3.26;97.09;102455.78;5013209;28;20021;-76
2021/01/09 06:49:29;;;;;;;13.80;6.45;;;;;;;-3.27;97.21;102452.38;5024664;28;20041;-76
2021/01/09 06:51:57;;;;;;;12.30;6.47;;;;;;;-3.24;97.00;102450.22;5015805;28;20026;-76
2021/01/09 06:54:26;;;;;;;18.00;7.20;;;;;;;-3.21;97.06;102458.06;5011709;28;20495;-76
2021/01/09 06:57:09;;;;;;;15.10;6.97;;;;;;;-3.22;97.03;102457.91;5009760;28;20025;-76
2021/01/09 06:59:39;;;;;;;15.20;6.87;;;;;;;-3.21;97.01;102454.66;5010811;28;20112;-76
2021/01/09 07:02:15;;;;;;;12.73;6.30;;;;;;;-3.22;97.70;102462.94;5010820;28;20026;-77
2021/01/09 07:04:59;;;;;;;11.73;5.60;;;;;;;-3.26;96.95;102459.19;5029862;28;20108;-75
2021/01/09 07:07:32;;;;;;;13.27;6.27;;;;;;;-3.28;97.24;102469.81;5010517;28;20026;-76
2021/01/09 07:09:59;;;;;;;15.57;7.90;;;;;;;-3.31;97.21;102465.34;5017131;28;20075;-76
2021/01/09 07:12:30;;;;;;;16.80;7.20;;;;;;;-3.31;97.07;102475.41;5013749;28;20120;-77
2021/01/09 07:15:06;;;;;;;13.87;6.70;;;;;;;-3.26;97.24;102466.72;5010993;28;20025;-77
2021/01/09 07:17:33;;;;;;;;;;;;;;;-3.23;97.11;102462.03;5012545;28;20040;-76
2021/01/09 07:20:02;;;;;;;9.90;4.82;;;;;;;-3.23;97.33;102471.19;5029576;28;19913;-76
2021/01/09 07:22:29;;;;;;;12.33;6.30;;;;;;;-3.25;97.01;102481.09;5013008;28;20028;-77
2021/01/09 07:24:58;;;;;;;14.20;6.67;;;;;;;-3.30;96.95;102474.66;5013396;28;20021;-75
2021/01/09 07:27:33;;;;;;;14.63;6.87;;;;;;;-3.33;97.03;102479.38;5023221;28;20017;-77
2021/01/09 07:29:59;;;;;;;9.97;5.93;;;;;;;-3.26;97.24;102480.91;5014333;28;20029;-77
2021/01/09 07:32:45;;;;;;;10.75;5.93;;;;;;;-3.25;97.15;102478.59;5015512;28;20025;-76
2021/01/09 07:35:10;;;;;;;10.57;5.97;;;;;;;-3.30;96.87;102481.31;5014377;28;20025;-76
2021/01/09 07:37:40;;;;;;;15.88;7.63;;;;;;;-3.33;96.90;102479.38;5030722;28;20500;-76
2021/01/09 07:40:15;;;;;;;16.37;7.13;;;;;;;-3.31;97.21;102482.94;5030490;28;20022;-76
2021/01/09 07:42:42;;;;;;;11.97;6.40;;;;;;;-3.30;96.60;102484.72;5022749;28;20026;-76
2021/01/09 07:45:09;;;;;;;13.87;6.47;;;;;;;-3.25;96.80;102487.75;5011327;28;20096;-75
2021/01/09 07:47:42;;;;;;;14.13;6.90;;;;;;;-3.25;97.03;102486.13;5018848;28;20357;-76
2021/01/09 07:50:10;;;;;;;13.53;6.83;;;;;;;-3.23;97.18;102492.19;5012385;28;20021;-76
2021/01/09 07:52:35;;;;;;;11.53;5.90;;;;;;;-3.13;97.29;102487.38;5017512;28;20044;-76
2021/01/09 07:55:05;;;;;;;14.20;6.13;;;;;;;-3.14;97.52;102492.25;5024872;28;20022;-76
2021/01/09 07:57:31;;;;;;;13.67;6.03;;;;;;;-3.17;97.24;102497.84;5028461;28;20052;-76
2021/01/09 08:00:02;;;;;;;16.17;6.65;;;;;;;-3.17;97.36;102489.44;5022079;28;20022;-76
2021/01/09 08:02:30;;;;;;;11.60;5.90;;;;;;;-3.15;97.72;102500.53;5014802;28;20033;-76
2021/01/09 08:05:09;;;;;;;12.30;6.23;;;;;;;-3.16;97.41;102504.66;5009611;28;20022;-75
2021/01/09 08:07:46;;;;;;;13.23;6.07;;;;;;;-3.16;97.04;102509.69;5020580;28;20104;-74
2021/01/09 08:10:26;;;;;;;11.97;6.33;;;;;;;-3.14;97.28;102518.28;5011965;28;20022;-75
2021/01/09 08:12:54;;;;;;;12.43;5.67;;;;;;;-3.12;97.28;102515.94;5007721;28;20427;-74
2021/01/09 08:15:19;;;;;;;11.43;6.00;;;;;;;-3.08;96.81;102513.00;5025978;28;20026;-76
2021/01/09 08:17:45;;;;;;;12.55;6.28;;;;;;;-3.01;97.53;102524.59;5019270;28;20037;-75
2021/01/09 08:20:12;;;;;;;12.00;5.88;;;;;;;-2.94;97.27;102514.41;5019356;28;20030;-75
2021/01/09 08:22:47;;;;;;;15.13;5.43;;;;;;;-2.90;97.24;102514.94;5021667;28;20049;-77
2021/01/09 08:25:12;;;;;;;9.00;5.17;;;;;;;-2.93;97.44;102519.66;5020563;28;20223;-76
2021/01/09 08:27:42;;;;;;;10.20;5.45;;;;;;;-2.89;97.30;102521.75;5018704;28;20014;-76
2021/01/09 08:30:10;;;;;;;14.40;4.77;;;;;;;-2.83;97.21;102531.53;5016581;28;20439;-76
2021/01/09 08:32:35;;;;;;;12.57;5.67;;;;;;;-2.88;97.11;102537.72;5025125;28;20063;-76
2021/01/09 08:35:01;;;;;;;15.85;6.30;;;;;;;-2.89;97.08;102535.94;5021827;28;20496;-76
2021/01/09 08:37:26;;;;;;;10.38;5.47;;;;;;;-2.82;97.17;102540.88;5016989;28;20148;-76
2021/01/09 08:39:52;;;;;;;9.45;5.18;;;;;;;-2.75;96.94;102539.88;5009916;28;20029;-76
2021/01/09 08:42:17;;;;;;;13.73;5.25;;;;;;;-2.66;96.90;102538.28;5020392;28;20400;-77
2021/01/09 08:44:49;;;;;;;9.38;5.82;;;;;;;-2.54;96.68;102542.09;5017525;28;20034;-76
2021/01/09 08:47:16;;;;;;;11.63;5.60;;;;;;;-2.45;97.04;102542.13;5018859;28;20018;-77
2021/01/09 08:49:44;;;;;;;10.37;5.93;;;;;;;-2.38;96.98;102540.41;5016780;28;20029;-76
2021/01/09 08:52:11;;;;;;;13.87;6.13;;;;;;;-2.25;97.32;102545.09;5027560;28;20120;-78
2021/01/09 08:54:43;;;;;;;16.57;6.73;;;;;;;-2.10;97.39;102556.69;5028158;28;20120;-79
2021/01/09 08:57:08;;;;;;;16.03;5.93;;;;;;;-2.11;97.43;102551.50;5029024;28;20017;-79
2021/01/09 08:59:34;;;;;;;13.02;6.25;;;;;;;-2.11;96.83;102557.44;5026066;28;20029;-79
2021/01/09 09:02:09;;;;;;;8.75;5.30;;;;;;;-2.01;97.20;102559.25;5024568;28;20050;-79
2021/01/09 09:04:40;;;;;;;12.53;5.93;;;;;;;-1.98;97.44;102560.44;5029211;28;20055;-79
2021/01/09 09:07:06;;;;;;;13.17;5.23;;;;;;;-1.89;97.09;102558.88;5032778;28;20067;-78
2021/01/09 09:09:32;;;;;;;;;;;;;;;-1.95;96.79;102564.94;5027033;28;20026;-79
2021/01/09 09:11:58;;;;;;;11.53;6.47;;;;;;;-1.84;96.82;102563.47;5040014;28;20000;-79
2021/01/09 09:14:25;;;;;;;13.25;6.07;;;;;;;-1.76;96.96;102568.53;5026880;28;20021;-78
2021/01/09 09:16:59;;;;;;;17.37;5.77;;;;;;;-1.65;96.81;102569.59;5029262;28;20025;-77
2021/01/09 09:19:25;;;;;;;14.90;5.30;;;;;;;-1.57;96.87;102572.16;5016800;28;20095;-77
2021/01/09 09:21:57;;;;;;;13.00;6.13;;;;;;;-1.49;97.04;102580.47;5016765;28;20483;-77
2021/01/09 09:24:45;;;;;;;12.37;5.67;;;;;;;-1.38;97.23;102579.91;5011992;28;20025;-77
2021/01/09 09:27:20;;;;;;;15.57;6.37;;;;;;;-1.23;97.35;102587.22;5010824;28;20022;-77
2021/01/09 09:29:46;;;;;;;12.53;5.23;;;;;;;-1.01;97.00;102581.00;5018617;28;20026;-77
2021/01/09 09:32:21;;;;;;;;;;;;;;;-0.68;97.03;102581.75;5022300;28;20072;-78
2021/01/09 09:34:46;;;;;;;14.97;5.80;;;;;;;-0.46;96.82;102582.16;5008396;28;19913;-77
2021/01/09 09:37:11;;;;;;;11.70;5.57;;;;;;;-0.14;96.89;102579.28;5021686;28;20430;-77
2021/01/09 09:39:37;;;;;;;10.80;5.93;;;;;;;0.04;96.99;102581.03;5010458;28;20036;-78
2021/01/09 09:42:03;;;;;;;11.80;4.88;;;;;;;0.69;95.54;102582.78;5026771;28;20030;-78
2021/01/09 09:44:39;;;;;;;10.27;3.80;;;;;;;1.09;94.00;102585.63;5022342;28;20052;-80
2021/01/09 09:47:12;;;;;;;8.27;3.75;;;;;;;1.17;93.19;102582.13;5028225;28;20032;-81
2021/01/09 09:49:47;;;;;;;7.97;2.60;;;;;;;1.30;92.13;102580.66;5024831;28;20029;-81
2021/01/09 09:52:21;;;;;;;7.93;2.20;;;;;;;1.47;91.49;102580.53;5038687;28;20040;-81
2021/01/09 09:55:00;;;;;;;11.17;3.00;;;;;;;1.68;90.48;102582.41;5040626;28;20033;-80
2021/01/09 09:57:26;;;;;;;10.40;2.87;;;;;;;1.81;90.30;102582.72;5026008;28;20025;-80
2021/01/09 10:00:22;;;;;;;7.90;2.60;;;;;;;1.94;89.74;102581.22;5026513;28;22249;-81
2021/01/09 10:02:57;;;;;;;7.83;2.83;;;;;;;2.08;89.25;102580.78;5010350;28;20041;-82
2021/01/09 10:05:28;;;;;;;8.63;2.60;;;;;;;2.25;88.74;102582.19;5024797;28;20098;-81
2021/01/09 10:09:28;;;;;;;9.23;2.80;;;;;;;2.35;88.72;102582.22;5017776;28;20475;-81
2021/01/09 10:11:19;;;;;;;8.97;2.43;;;;;;;2.45;87.99;102575.53;5014019;28;20040;-81
2021/01/09 10:13:45;;;;;;;4.18;2.20;;;;;;;2.41;88.97;102583.63;5024134;28;20444;-81
2021/01/09 10:16:11;;;;;;;10.50;2.90;;;;;;;2.46;90.68;102586.56;5016779;28;20088;-80
2021/01/09 10:18:36;;;;;;;4.18;2.15;;;;;;;2.64;92.04;102585.56;5025069;28;20021;-83
2021/01/09 10:21:01;;;;;;;9.05;2.70;;;;;;;2.68;90.69;102577.44;5015575;28;20025;-81
2021/01/09 10:23:30;;;;;;;6.07;2.65;;;;;;;2.76;88.89;102575.53;5020471;28;20032;-80
2021/01/09 10:25:56;;;;;;;4.37;2.00;;;;;;;2.80;88.12;102577.56;5035489;28;20017;-82
2021/01/09 10:28:22;;;;;;;6.80;1.70;;;;;;;3.42;88.69;102569.97;5016842;28;20051;-80
2021/01/09 10:30:48;;;;;;;6.70;2.00;;;;;;;4.44;84.62;102566.91;5015609;28;20041;-80
2021/01/09 10:33:14;;;;;;;4.45;2.10;;;;;;;5.75;81.39;102562.94;5027509;28;20037;-80
2021/01/09 10:35:44;;;;;;;5.47;1.60;;;;;;;6.75;79.01;102561.34;5031415;28;20029;-80
2021/01/09 10:38:09;;;;;;;5.70;2.17;;;;;;;6.44;75.00;102561.84;5037495;28;20036;-80
2021/01/09 10:40:35;;;;;;;4.13;2.10;;;;;;;6.21;76.41;102557.75;5038404;28;20391;-79
2021/01/09 10:43:00;;;;;;;5.32;2.40;;;;;;;6.47;76.22;102562.03;5037603;28;20059;-78
2021/01/09 10:45:25;;;;;;;8.03;2.47;;;;;;;7.57;76.41;102558.19;5019656;28;20076;-81
2021/01/09 10:47:50;;;;;;;8.82;2.55;;;;;;;8.74;71.76;102553.44;5028697;28;20551;-80
2021/01/09 10:50:16;;;;;;;8.93;2.10;;;;;;;10.03;66.71;102547.81;5019947;28;20055;-82
2021/01/09 10:52:41;;;;;;;5.75;1.80;;;;;;;11.30;60.78;102540.59;5020677;28;20021;-79
2021/01/09 10:55:07;;;;;;;5.00;2.20;;;;;;;12.27;56.27;102535.63;5027594;28;20052;-79
2021/01/09 10:57:32;;;;;;;;;;;;;;;12.87;54.24;102534.78;5017692;28;20441;-79
2021/01/09 10:59:58;;;;;;;7.68;2.15;;;;;;;13.38;52.80;102541.22;5018814;28;19913;-79
2021/01/09 11:02:23;;;;;;;;;;;;;;;13.85;53.58;102543.84;5030304;28;20018;-80
2021/01/09 11:04:48;;;;;;;8.90;2.50;;;;;;;14.36;52.84;102534.53;5035737;28;20290;-81
2021/01/09 11:07:14;;;;;;;8.15;2.50;;;;;;;14.64;46.34;102528.66;5021854;28;20021;-81
2021/01/09 11:09:39;;;;;;;7.47;2.20;;;;;;;14.21;51.30;102528.78;5028737;28;20083;-80
2021/01/09 11:12:05;;;;;;;7.15;2.10;;;;;;;14.27;52.81;102532.47;5013361;28;20025;-79
2021/01/09 11:14:30;;;;;;;5.15;1.98;;;;;;;14.59;49.35;102525.88;5017358;28;20513;-79
2021/01/09 11:16:56;;;;;;;11.88;2.72;;;;;;;14.22;47.47;102534.03;5015328;28;20026;-82
2021/01/09 11:19:22;;;;;;;4.68;2.30;;;;;;;13.70;46.49;102531.25;5015558;28;20146;-80
2021/01/09 11:21:48;;;;;;;;;;;;;;;13.32;48.46;102537.47;5014989;28;20072;-76
2021/01/09 11:24:13;;;;;;;6.63;2.10;;;;;;;13.25;50.05;102538.94;5014170;28;19913;-81